Time;durP1;ratioP1;P1;durP2;ratioP2;P2;SDS_P1;SDS_P2;PMS_P1;PMS_P2;Temp;Humidity;BMP_temperature;BMP_pressure;BME280_temperature;BME280_humidity;BME280_pressure;Samples;Min_cycle;Max_cycle;Signal;HPM_P1;HPM_P2
2023/03/18 00:01:03;;;;;;;;;;;;;;;8.38;72.01;98164.44;5068676;28;19932;-81
2023/03/18 00:03:32;;;;;;;;;;;;;;;8.48;70.88;98168.00;5065250;28;20436;-81
2023/03/18 00:06:02;;;;;;;;;;;;;;;8.35;71.51;98171.06;5063833;28;19924;-81
2023/03/18 00:08:28;;;;;;;;;;;;;;;8.34;71.05;98169.47;5061819;28;20327;-81
2023/03/18 00:10:53;;;;;;;;;;;;;;;8.39;70.97;98161.53;5063857;28;19924;-80
2023/03/18 00:13:18;;;;;;;;;;;;;;;8.38;71.95;98165.25;5063256;28;19936;-81
2023/03/18 00:15:43;;;;;;;;;;;;;;;8.36;71.87;98170.03;5080768;28;19924;-81
2023/03/18 00:18:09;;;;;;;;;;;;;;;8.30;71.98;98161.19;5068107;28;19931;-81
2023/03/18 00:20:37;;;;;;;;;;;;;;;8.41;72.04;98172.72;5069722;28;19920;-81
2023/03/18 00:23:03;;;;;;;;;;;;;;;8.42;71.15;98174.34;5057806;28;21142;-81
2023/03/18 00:25:28;;;;;;;;;;;;;;;8.33;71.86;98183.81;5076701;28;19928;-81
2023/03/18 00:27:54;;;;;;;;;;;;;;;8.31;71.01;98183.25;5075857;28;19924;-80
2023/03/18 00:30:20;;;;;;;;;;;;;;;8.25;71.90;98186.88;5078582;28;20337;-80
2023/03/18 00:32:46;;;;;;;;;;;;;;;8.21;71.83;98175.94;5076737;28;20274;-80
2023/03/18 00:35:11;;;;;;;;;;;;;;;8.22;71.86;98182.06;5074217;28;19931;-80
2023/03/18 00:37:37;;;;;;;;;;;;;;;8.18;71.78;98172.97;5076423;28;20211;-80
2023/03/18 00:40:06;;;;;;;;;;;;;;;8.18;71.71;98180.97;5073543;28;19920;-80
2023/03/18 00:42:46;;;;;;;;;;;;;;;8.17;72.58;98172.16;5073769;28;20406;-80
2023/03/18 00:45:12;;;;;;;;;;;;;;;8.29;71.71;98172.88;5055415;28;19928;-82
2023/03/18 00:47:37;;;;;;;;;;;;;;;8.21;71.82;98164.53;5071900;28;20035;-81
2023/03/18 00:50:03;;;;;;;;;;;;;;;8.15;72.29;98182.25;5074196;28;20374;-81
2023/03/18 00:52:29;;;;;;;;;;;;;;;8.14;72.43;98180.66;5072421;28;19935;-82
2023/03/18 00:54:55;;;;;;;;;;;;;;;8.14;72.54;98179.84;5068324;28;20718;-81
2023/03/18 00:57:21;;;;;;;;;;;;;;;8.16;72.51;98183.88;5071112;28;20007;-81
2023/03/18 00:59:47;;;;;;;;;;;;;;;8.16;72.29;98183.06;5075212;28;19923;-80
2023/03/18 01:02:12;;;;;;;;;;;;;;;8.16;72.53;98183.06;5073403;28;19920;-81
2023/03/18 01:04:38;;;;;;;;;;;;;;;8.19;72.30;98187.88;5072298;28;20050;-81
2023/03/18 01:07:04;;;;;;;;;;;;;;;8.14;73.16;98187.81;5073564;28;19951;-80
2023/03/18 01:09:30;;;;;;;;;;;;;;;8.20;72.37;98187.63;5055474;28;20394;-80
2023/03/18 01:11:56;;;;;;;;;;;;;;;8.17;71.78;98184.66;5073675;28;19921;-81
2023/03/18 01:14:21;;;;;;;;;;;;;;;8.19;71.98;98182.56;5069263;28;19925;-81
2023/03/18 01:16:46;;;;;;;;;;;;;;;8.27;71.60;98182.97;5056103;28;19970;-81
2023/03/18 01:19:12;;;;;;;;;;;;;;;8.25;73.05;98189.56;5070463;28;19928;-81
2023/03/18 01:21:38;;;;;;;;;;;;;;;8.21;72.11;98191.88;5074863;28;19928;-81
2023/03/18 01:24:04;;;;;;;;;;;;;;;8.17;72.83;98190.78;5053673;28;20261;-81
2023/03/18 01:26:29;;;;;;;;;;;;;;;8.15;72.73;98197.38;5068998;28;20003;-81
2023/03/18 01:28:54;;;;;;;;;;;;;;;8.12;72.92;98196.06;5069913;28;21239;-80
2023/03/18 01:31:19;;;;;;;;;;;;;;;8.14;72.44;98201.13;5072410;28;19921;-81
2023/03/18 01:33:46;;;;;;;;;;;;;;;8.11;72.54;98199.75;5066908;28;20284;-81
2023/03/18 01:36:11;;;;;;;;;;;;;;;8.17;72.86;98203.25;5062539;28;19927;-80
2023/03/18 01:38:37;;;;;;;;;;;;;;;8.24;72.81;98198.56;5066583;28;19924;-81
2023/03/18 01:41:03;;;;;;;;;;;;;;;8.34;72.36;98200.56;5073477;28;19921;-81
2023/03/18 01:43:30;;;;;;;;;;;;;;;8.25;73.00;98203.69;5063122;28;20277;-81
2023/03/18 01:45:57;;;;;;;;;;;;;;;8.16;72.47;98202.47;5071546;28;19928;-81
2023/03/18 01:48:24;;;;;;;;;;;;;;;8.15;72.60;98203.50;5071363;28;19917;-80
2023/03/18 01:50:58;;;;;;;;;;;;;;;8.19;72.43;98203.84;5068976;28;20241;-80
2023/03/18 01:53:26;;;;;;;;;;;;;;;8.15;72.99;98202.69;5064614;28;20367;-81
2023/03/18 01:55:51;;;;;;;;;;;;;;;8.24;72.31;98215.31;5067119;28;19963;-81
2023/03/18 01:58:21;;;;;;;;;;;;;;;8.17;72.41;98204.06;5066861;28;19960;-82
2023/03/18 02:01:05;;;;;;;;;;;;;;;8.17;72.85;98200.59;5065344;28;19927;-81
2023/03/18 02:03:33;;;;;;;;;;;;;;;8.22;72.32;98212.09;5070181;28;19923;-81
2023/03/18 02:05:58;;;;;;;;;;;;;;;8.28;72.87;98213.81;5072290;28;19921;-82
2023/03/18 02:08:24;;;;;;;;;;;;;;;8.27;72.93;98216.72;5067617;28;19925;-81
2023/03/18 02:10:49;;;;;;;;;;;;;;;8.23;72.85;98210.25;5070931;28;19916;-80
2023/03/18 02:13:15;;;;;;;;;;;;;;;8.20;73.46;98208.09;5067008;28;20430;-80
2023/03/18 02:16:02;;;;;;;;;;;;;;;8.29;72.97;98210.09;5067057;28;19927;-80
2023/03/18 02:18:33;;;;;;;;;;;;;;;8.27;72.72;98216.72;5068863;28;20367;-81
2023/03/18 02:21:06;;;;;;;;;;;;;;;8.34;72.27;98208.53;5071854;28;19923;-81
2023/03/18 02:23:51;;;;;;;;;;;;;;;8.40;72.64;98220.84;5073096;28;19916;-80
2023/03/18 02:26:19;;;;;;;;;;;;;;;8.30;72.69;98224.16;5071350;28;20491;-81
2023/03/18 02:28:45;;;;;;;;;;;;;;;8.31;73.03;98223.13;5073075;28;19920;-80
2023/03/18 02:31:14;;;;;;;;;;;;;;;8.40;72.36;98228.81;5070964;28;19972;-80
2023/03/18 02:33:41;;;;;;;;;;;;;;;8.43;72.34;98226.44;5074374;28;19920;-80
2023/03/18 02:36:18;;;;;;;;;;;;;;;8.38;72.35;98222.94;5072630;28;19916;-80
2023/03/18 02:38:44;;;;;;;;;;;;;;;8.37;72.35;98224.78;5071866;28;20308;-80
2023/03/18 02:41:17;;;;;;;;;;;;;;;8.40;73.19;98223.50;5070890;28;19916;-80
2023/03/18 02:43:44;;;;;;;;;;;;;;;8.29;73.43;98234.03;5073019;28;19982;-81
2023/03/18 02:46:31;;;;;;;;;;;;;;;8.33;73.09;98234.31;5070504;28;19916;-80
2023/03/18 02:49:00;;;;;;;;;;;;;;;8.40;73.05;98228.81;5063696;28;21558;-80
2023/03/18 02:51:26;;;;;;;;;;;;;;;8.38;72.95;98222.94;5066589;28;20002;-80
2023/03/18 02:53:57;;;;;;;;;;;;;;;8.46;72.93;98225.97;5065623;28;19955;-80
2023/03/18 02:56:22;;;;;;;;;;;;;;;8.41;73.49;98222.47;5072848;28;19916;-81
2023/03/18 02:58:48;;;;;;;;;;;;;;;8.40;74.40;98221.66;5063537;28;19988;-80
2023/03/18 03:01:13;;;;;;;;;;;;;;;8.38;73.87;98222.94;5067316;28;19935;-81
2023/03/18 03:03:38;;;;;;;;;;;;;;;8.39;74.66;98220.03;5065166;28;20293;-81
2023/03/18 03:06:04;;;;;;;;;;;;;;;8.39;74.71;98235.97;5068715;28;20604;-81
2023/03/18 03:08:29;;;;;;;;;;;;;;;8.35;75.29;98234.88;5066602;28;20288;-81
2023/03/18 03:10:55;;;;;;;;;;;;;;;8.28;75.37;98232.41;5047522;28;21128;-81
2023/03/18 03:13:21;;;;;;;;;;;;;;;8.24;75.96;98243.75;5067024;28;20318;-79
2023/03/18 03:15:48;;;;;;;;;;;;;;;8.34;75.36;98238.59;5064740;28;20350;-80
2023/03/18 03:18:14;;;;;;;;;;;;;;;8.23;76.24;98239.50;5065326;28;19924;-80
2023/03/18 03:20:40;;;;;;;;;;;;;;;8.14;78.17;98239.13;5065646;28;20265;-80
2023/03/18 03:23:07;;;;;;;;;;;;;;;8.14;76.05;98238.31;5067098;28;20280;-79
2023/03/18 03:25:32;;;;;;;;;;;;;;;8.10;77.89;98243.31;5067287;28;19923;-80
2023/03/18 03:27:58;;;;;;;;;;;;;;;8.07;79.67;98249.13;5071184;28;19928;-81
2023/03/18 03:30:25;;;;;;;;;;;;;;;8.25;76.44;98246.22;5065696;28;19917;-80
2023/03/18 03:32:51;;;;;;;;;;;;;;;8.14;77.85;98241.78;5068497;28;19916;-81
2023/03/18 03:35:17;;;;;;;;;;;;;;;8.12;77.05;98257.19;5069078;28;19917;-81
2023/03/18 03:37:42;;;;;;;;;;;;;;;8.07;77.61;98261.63;5065285;28;19928;-81
2023/03/18 03:40:12;;;;;;;;;;;;;;;8.19;77.43;98249.81;5068650;28;19966;-81
2023/03/18 03:42:37;;;;;;;;;;;;;;;8.05;77.76;98256.56;5065627;28;20266;-79
2023/03/18 03:45:04;;;;;;;;;;;;;;;8.09;77.11;98259.53;5069440;28;19916;-80
2023/03/18 03:47:29;;;;;;;;;;;;;;;7.99;78.42;98256.75;5081355;28;20003;-80
2023/03/18 03:49:55;;;;;;;;;;;;;;;8.00;77.85;98255.69;5063025;28;19973;-80
2023/03/18 03:52:20;;;;;;;;;;;;;;;8.06;77.40;98260.03;5077171;28;19931;-81
2023/03/18 03:54:46;;;;;;;;;;;;;;;8.01;79.50;98249.31;5064898;28;19920;-80
2023/03/18 03:57:11;;;;;;;;;;;;;;;7.97;81.37;98248.22;5062999;28;19925;-80
2023/03/18 03:59:36;;;;;;;;;;;;;;;8.06;77.73;98250.19;5048615;28;19932;-81
2023/03/18 04:02:02;;;;;;;;;;;;;;;8.03;78.02;98258.66;5048193;28;20000;-81
2023/03/18 04:04:28;;;;;;;;;;;;;;;8.01;78.59;98260.75;5060986;28;19955;-80
2023/03/18 04:06:53;;;;;;;;;;;;;;;8.04;77.98;98259.44;5061666;28;20015;-80
2023/03/18 04:09:18;;;;;;;;;;;;;;;7.93;79.62;98257.72;5064734;28;19920;-81
2023/03/18 04:11:43;;;;;;;;;;;;;;;7.93;79.18;98253.19;5065387;28;19916;-81
2023/03/18 04:14:09;;;;;;;;;;;;;;;8.00;80.54;98248.50;5061868;28;19921;-80
2023/03/18 04:16:34;;;;;;;;;;;;;;;7.99;78.74;98262.06;5069362;28;19952;-80
2023/03/18 04:18:59;;;;;;;;;;;;;;;8.03;80.05;98265.81;5049696;28;19928;-80
2023/03/18 04:21:24;;;;;;;;;;;;;;;8.02;80.28;98256.22;5069081;28;20296;-79
2023/03/18 04:23:50;;;;;;;;;;;;;;;7.98;78.23;98263.09;5068789;28;19928;-79
2023/03/18 04:26:15;;;;;;;;;;;;;;;8.05;78.62;98261.06;5070886;28;19935;-81
2023/03/18 04:28:40;;;;;;;;;;;;;;;7.99;79.08;98265.53;5049211;28;19921;-79
2023/03/18 04:31:06;;;;;;;;;;;;;;;8.07;78.15;98272.25;5045392;28;19929;-80
2023/03/18 04:33:31;;;;;;;;;;;;;;;8.18;77.70;98268.66;5062574;28;20392;-81
2023/03/18 04:35:56;;;;;;;;;;;;;;;8.06;78.16;98274.09;5082451;28;19924;-81
2023/03/18 04:38:22;;;;;;;;;;;;;;;8.05;79.50;98277.00;5069147;28;19924;-80
2023/03/18 04:40:47;;;;;;;;;;;;;;;8.07;78.79;98282.88;5071552;28;19927;-80
2023/03/18 04:43:13;;;;;;;;;;;;;;;8.18;78.74;98281.97;5070653;28;20087;-80
2023/03/18 04:45:38;;;;;;;;;;;;;;;8.08;80.68;98282.63;5066080;28;19921;-80
2023/03/18 04:48:04;;;;;;;;;;;;;;;8.01;80.31;98274.06;5045855;28;19971;-79
2023/03/18 04:50:29;;;;;;;;;;;;;;;8.04;80.15;98275.38;5066466;28;19923;-80
2023/03/18 04:52:55;;;;;;;;;;;;;;;8.07;80.32;98272.25;5059878;28;20299;-80
2023/03/18 04:55:20;;;;;;;;;;;;;;;8.07;79.57;98273.06;5060409;28;19917;-79
2023/03/18 04:57:47;;;;;;;;;;;;;;;8.10;79.90;98271.78;5064942;28;19924;-79
2023/03/18 05:00:14;;;;;;;;;;;;;;;8.13;79.48;98272.06;5066894;28;19916;-81
2023/03/18 05:02:40;;;;;;;;;;;;;;;8.06;80.02;98279.41;5067881;28;19924;-81
2023/03/18 05:05:06;;;;;;;;;;;;;;;8.14;79.48;98279.00;5066232;28;20289;-81
2023/03/18 05:07:32;;;;;;;;;;;;;;;8.03;81.93;98274.59;5061539;28;19927;-80
2023/03/18 05:09:57;;;;;;;;;;;;;;;8.06;80.44;98274.09;5064751;28;19921;-80
2023/03/18 05:12:24;;;;;;;;;;;;;;;8.14;79.95;98275.53;5073684;28;20003;-81
2023/03/18 05:14:50;;;;;;;;;;;;;;;8.15;80.73;98271.81;5064810;28;20306;-80
2023/03/18 05:17:16;;;;;;;;;;;;;;;8.09;80.26;98264.84;5067256;28;19928;-80
2023/03/18 05:19:42;;;;;;;;;;;;;;;7.99;81.76;98270.03;5068694;28;19927;-80
2023/03/18 05:22:08;;;;;;;;;;;;;;;8.11;81.25;98273.38;5071610;28;20347;-80
2023/03/18 05:24:33;;;;;;;;;;;;;;;8.08;80.66;98285.28;5068289;28;19981;-80
2023/03/18 05:26:58;;;;;;;;;;;;;;;8.18;81.16;98285.44;5069585;28;19917;-80
2023/03/18 05:29:24;;;;;;;;;;;;;;;8.10;82.17;98282.41;5073548;28;19922;-81
2023/03/18 05:31:51;;;;;;;;;;;;;;;8.00;82.93;98274.28;5071764;28;21169;-80
2023/03/18 05:34:16;;;;;;;;;;;;;;;8.03;81.95;98273.78;5067418;28;19920;-80
2023/03/18 05:36:41;;;;;;;;;;;;;;;8.03;82.26;98271.94;5069537;28;19986;-81
2023/03/18 05:39:07;;;;;;;;;;;;;;;7.98;81.28;98277.19;5066480;28;19943;-81
2023/03/18 05:41:32;;;;;;;;;;;;;;;7.97;81.49;98280.09;5051487;28;19931;-81
2023/03/18 05:43:58;;;;;;;;;;;;;;;7.95;81.91;98277.66;5049218;28;19935;-80
2023/03/18 05:46:23;;;;;;;;;;;;;;;7.92;81.19;98278.19;5072837;28;19982;-80
2023/03/18 05:48:48;;;;;;;;;;;;;;;7.93;81.07;98273.66;5051332;28;20407;-81
2023/03/18 05:51:13;;;;;;;;;;;;;;;7.92;81.17;98274.72;5069574;28;20406;-80
2023/03/18 05:53:39;;;;;;;;;;;;;;;7.95;81.30;98290.19;5047918;28;20208;-80
2023/03/18 05:56:06;;;;;;;;;;;;;;;7.92;81.84;98288.00;5066353;28;19925;-80
2023/03/18 05:58:32;;;;;;;;;;;;;;;7.91;81.47;98294.34;5066052;28;20390;-81
2023/03/18 06:00:58;;;;;;;;;;;;;;;7.87;81.89;98293.22;5069286;28;19929;-80
2023/03/18 06:03:24;;;;;;;;;;;;;;;7.90;81.65;98287.44;5063565;28;20746;-81
2023/03/18 06:05:49;;;;;;;;;;;;;;;7.92;80.48;98296.78;5066687;28;20029;-81
2023/03/18 06:08:16;;;;;;;;;;;;;;;7.91;80.63;98294.34;5065402;28;19943;-81
2023/03/18 06:10:41;;;;;;;;;;;;;;;7.87;81.80;98307.31;5066086;28;19939;-81
2023/03/18 06:13:09;;;;;;;;;;;;;;;7.88;81.12;98313.44;5071561;28;19920;-81
2023/03/18 06:15:34;;;;;;;;;;;;;;;7.84;80.72;98317.66;5069624;28;19932;-81
2023/03/18 06:17:59;;;;;;;;;;;;;;;7.87;80.91;98320.59;5068799;28;19924;-80
2023/03/18 06:20:25;;;;;;;;;;;;;;;7.90;80.07;98319.31;5050100;28;19924;-81
2023/03/18 06:22:50;;;;;;;;;;;;;;;7.86;80.38;98323.50;5067873;28;20011;-81
2023/03/18 06:25:19;;;;;;;;;;;;;;;7.92;81.16;98325.19;5069285;28;19916;-81
2023/03/18 06:27:46;;;;;;;;;;;;;;;7.94;80.26;98329.22;5066927;28;19922;-81
2023/03/18 06:30:12;;;;;;;;;;;;;;;7.88;81.17;98324.06;5068111;28;19916;-81
2023/03/18 06:32:39;;;;;;;;;;;;;;;7.73;84.34;98332.63;5069846;28;20219;-80
2023/03/18 06:35:04;;;;;;;;;;;;;;;7.90;81.13;98321.97;5070040;28;19974;-80
2023/03/18 06:37:29;;;;;;;;;;;;;;;7.97;80.80;98319.97;5068102;28;19928;-80
2023/03/18 06:39:55;;;;;;;;;;;;;;;7.95;82.15;98325.50;5066867;28;19983;-80
2023/03/18 06:42:20;;;;;;;;;;;;;;;7.98;82.40;98324.22;5069548;28;19920;-81
2023/03/18 06:44:49;;;;;;;;;;;;;;;7.92;85.40;98317.22;5062956;28;20383;-81
2023/03/18 06:47:16;;;;;;;;;;;;;;;8.02;82.34;98327.97;5065540;28;20020;-81
2023/03/18 06:49:41;;;;;;;;;;;;;;;8.02;85.00;98320.81;5066595;28;19928;-81
2023/03/18 06:52:06;;;;;;;;;;;;;;;8.06;82.53;98329.13;5050592;28;21505;-81
2023/03/18 06:54:33;;;;;;;;;;;;;;;8.21;80.21;98332.78;5048297;28;19935;-81
2023/03/18 06:56:58;;;;;;;;;;;;;;;8.19;80.84;98324.25;5066423;28;19924;-79
2023/03/18 06:59:24;;;;;;;;;;;;;;;8.27;82.74;98334.50;5064060;28;19939;-79
2023/03/18 07:01:49;;;;;;;;;;;;;;;8.34;81.94;98334.31;5067982;28;20288;-80
2023/03/18 07:04:14;;;;;;;;;;;;;;;8.40;82.91;98343.16;5068421;28;20357;-81
2023/03/18 07:06:40;;;;;;;;;;;;;;;8.55;81.23;98346.00;5068160;28;20396;-81
2023/03/18 07:09:05;;;;;;;;;;;;;;;8.56;81.41;98352.94;5064977;28;20221;-80
2023/03/18 07:11:30;;;;;;;;;;;;;;;8.68;81.59;98357.09;5049167;28;19920;-81
2023/03/18 07:13:56;;;;;;;;;;;;;;;8.80;81.70;98344.44;5044816;28;20015;-81
2023/03/18 07:16:21;;;;;;;;;;;;;;;8.82;82.85;98357.50;5067359;28;19960;-81
2023/03/18 07:18:46;;;;;;;;;;;;;;;8.84;82.71;98360.72;5065813;28;19929;-81
2023/03/18 07:21:12;;;;;;;;;;;;;;;8.85;83.19;98363.13;5051275;28;19968;-81
2023/03/18 07:23:37;;;;;;;;;;;;;;;8.96;84.21;98358.72;5066199;28;19920;-81
2023/03/18 07:26:03;;;;;;;;;;;;;;;9.00;81.12;98367.81;5072131;28;19917;-80
2023/03/18 07:28:28;;;;;;;;;;;;;;;9.00;86.18;98370.47;5053928;28;19973;-81
2023/03/18 07:30:53;;;;;;;;;;;;;;;9.02;81.95;98363.84;5053504;28;19947;-81
2023/03/18 07:33:19;;;;;;;;;;;;;;;9.02;81.83;98363.84;5062748;28;19952;-80
2023/03/18 07:35:44;;;;;;;;;;;;;;;9.02;82.28;98363.06;5067851;28;19971;-81
2023/03/18 07:38:10;;;;;;;;;;;;;;;9.13;81.51;98369.31;5070576;28;19932;-80
2023/03/18 07:40:36;;;;;;;;;;;;;;;9.04;83.29;98376.94;5072540;28;19917;-81
2023/03/18 07:43:02;;;;;;;;;;;;;;;9.04;83.56;98382.25;5065790;28;19932;-80
2023/03/18 07:45:28;;;;;;;;;;;;;;;9.09;84.87;98384.16;5063044;28;19916;-80
2023/03/18 07:47:53;;;;;;;;;;;;;;;9.21;86.46;98374.16;5085044;28;20399;-81
2023/03/18 07:50:18;;;;;;;;;;;;;;;9.19;84.29;98374.44;5066669;28;19963;-82
2023/03/18 07:52:44;;;;;;;;;;;;;;;9.15;84.27;98372.50;5059367;28;20012;-81
2023/03/18 07:55:09;;;;;;;;;;;;;;;9.19;85.73;98379.75;5056059;28;19963;-81
2023/03/18 07:57:35;;;;;;;;;;;;;;;9.20;86.40;98392.00;5050130;28;19920;-81
2023/03/18 08:00:00;;;;;;;;;;;;;;;9.17;85.27;98381.06;5063134;28;19988;-81
2023/03/18 08:02:27;;;;;;;;;;;;;;;9.18;85.66;98387.97;5065154;28;19920;-81
2023/03/18 08:04:52;;;;;;;;;;;;;;;9.21;87.31;98387.47;5065737;28;19935;-80
2023/03/18 08:07:18;;;;;;;;;;;;;;;9.23;85.77;98388.03;5064886;28;19928;-81
2023/03/18 08:09:43;;;;;;;;;;;;;;;9.26;86.34;98392.88;5069826;28;19921;-81
2023/03/18 08:12:09;;;;;;;;;;;;;;;9.27;85.51;98392.59;5065868;28;20382;-81
2023/03/18 08:14:34;;;;;;;;;;;;;;;9.30;86.43;98391.31;5059424;28;19963;-81
2023/03/18 08:17:00;;;;;;;;;;;;;;;9.33;86.46;98394.25;5069290;28;19923;-81
2023/03/18 08:19:26;;;;;;;;;;;;;;;9.37;86.04;98398.03;5052924;28;20376;-81
2023/03/18 08:21:51;;;;;;;;;;;;;;;9.40;85.84;98399.38;5069301;28;20038;-81
2023/03/18 08:24:17;;;;;;;;;;;;;;;9.40;86.35;98397.53;5049910;28;19948;-80
2023/03/18 08:26:42;;;;;;;;;;;;;;;9.45;86.26;98405.59;5072740;28;20279;-82
2023/03/18 08:29:07;;;;;;;;;;;;;;;9.51;86.36;98409.09;5068222;28;19929;-82
2023/03/18 08:31:33;;;;;;;;;;;;;;;9.50;86.16;98410.94;5065854;28;19929;-83
2023/03/18 08:33:58;;;;;;;;;;;;;;;9.52;86.54;98411.47;5046969;28;20430;-83
2023/03/18 08:36:23;;;;;;;;;;;;;;;9.57;86.92;98402.75;5068186;28;19924;-83
2023/03/18 08:38:49;;;;;;;;;;;;;;;9.60;86.36;98407.56;5053318;28;19950;-83
2023/03/18 08:41:15;;;;;;;;;;;;;;;9.54;85.68;98413.91;5068690;28;19971;-83
2023/03/18 08:43:41;;;;;;;;;;;;;;;9.63;86.12;98413.19;5077103;28;19924;-83
2023/03/18 08:46:07;;;;;;;;;;;;;;;10.03;86.24;98404.72;5071328;28;19920;-83
2023/03/18 08:48:34;;;;;;;;;;;;;;;10.25;84.66;98416.13;5072699;28;19942;-82
2023/03/18 08:51:01;;;;;;;;;;;;;;;10.32;84.55;98407.91;5071970;28;19916;-82
2023/03/18 08:53:27;;;;;;;;;;;;;;;10.38;83.92;98410.34;5068932;28;19924;-82
2023/03/18 08:55:52;;;;;;;;;;;;;;;10.38;83.55;98410.34;5046513;28;20137;-82
2023/03/18 08:58:17;;;;;;;;;;;;;;;10.43;82.78;98413.06;5070162;28;19941;-83
2023/03/18 09:00:43;;;;;;;;;;;;;;;10.56;82.51;98427.78;5069124;28;19920;-83
2023/03/18 09:03:08;;;;;;;;;;;;;;;10.55;82.24;98418.97;5066284;28;19928;-82
2023/03/18 09:05:34;;;;;;;;;;;;;;;10.52;81.84;98429.38;5071501;28;19936;-82
2023/03/18 09:07:59;;;;;;;;;;;;;;;10.69;82.57;98423.84;5071667;28;19924;-83
2023/03/18 09:10:24;;;;;;;;;;;;;;;10.67;81.92;98424.13;5073987;28;19921;-82
2023/03/18 09:12:50;;;;;;;;;;;;;;;10.73;81.52;98432.94;5067904;28;20458;-83
2023/03/18 09:15:16;;;;;;;;;;;;;;;10.74;81.72;98424.69;5067131;28;19954;-83
2023/03/18 09:17:42;;;;;;;;;;;;;;;10.76;82.12;98429.78;5068575;28;20286;-82
2023/03/18 09:20:08;;;;;;;;;;;;;;;10.78;82.11;98430.31;5070699;28;19943;-82
2023/03/18 09:22:34;;;;;;;;;;;;;;;10.79;81.87;98426.59;5068560;28;20404;-82
2023/03/18 09:24:59;;;;;;;;;;;;;;;10.89;81.48;98432.78;5071406;28;19916;-83
2023/03/18 09:27:25;;;;;;;;;;;;;;;10.89;81.22;98435.44;5067006;28;19947;-83
2023/03/18 09:29:50;;;;;;;;;;;;;;;11.03;81.19;98433.09;5071233;28;19923;-83
2023/03/18 09:32:16;;;;;;;;;;;;;;;11.16;80.92;98432.63;5068250;28;19932;-82
2023/03/18 09:34:43;;;;;;;;;;;;;;;11.25;80.59;98428.34;5066487;28;19920;-82
2023/03/18 09:37:08;;;;;;;;;;;;;;;11.29;80.68;98432.13;5069152;28;19920;-82
2023/03/18 09:39:34;;;;;;;;;;;;;;;11.29;80.62;98434.81;5074899;28;19933;-83
2023/03/18 09:42:08;;;;;;;;;;;;;;;11.37;80.69;98434.28;5056482;28;19924;-83
2023/03/18 09:44:34;;;;;;;;;;;;;;;11.16;80.67;98440.63;5067752;28;19924;-83
2023/03/18 09:47:21;;;;;;;;;;;;;;;11.18;81.40;98438.50;5072957;28;19920;-83
2023/03/18 09:49:50;;;;;;;;;;;;;;;11.12;80.22;98440.34;5065854;28;20319;-83
2023/03/18 09:52:22;;;;;;;;;;;;;;;11.31;79.96;98446.03;5068676;28;19920;-83
2023/03/18 09:55:01;;;;;;;;;;;;;;;11.40;79.32;98449.78;5068303;28;19931;-82
2023/03/18 09:57:29;;;;;;;;;;;;;;;11.38;79.43;98440.44;5061851;28;19924;-83
2023/03/18 10:00:03;;;;;;;;;;;;;;;11.48;79.16;98441.25;5066865;28;19927;-84
2023/03/18 10:02:39;;;;;;;;;;;;;;;11.47;78.64;98441.50;5067494;28;19924;-83
2023/03/18 10:05:09;;;;;;;;;;;;;;;11.60;79.13;98438.34;5066450;28;19978;-83
2023/03/18 10:07:38;;;;;;;;;;;;;;;11.82;78.96;98437.06;5071365;28;20410;-83
2023/03/18 10:10:24;;;;;;;;;;;;;;;11.77;77.58;98439.72;5075301;28;20444;-83
2023/03/18 10:12:55;;;;;;;;;;;;;;;11.94;77.14;98448.31;5061986;28;19931;-84
2023/03/18 10:15:38;;;;;;;;;;;;;;;12.02;77.57;98446.97;5057385;28;20513;-83
2023/03/18 10:18:03;;;;;;;;;;;;;;;12.08;77.09;98448.56;5055485;28;20235;-83
2023/03/18 10:20:28;;;;;;;;;;;;;;;12.06;77.39;98441.91;5057500;28;19924;-82
2023/03/18 10:22:53;;;;;;;;;;;;;;;12.17;76.88;98441.63;5066538;28;19917;-84
2023/03/18 10:25:31;;;;;;;;;;;;;;;12.23;76.29;98448.56;5070194;28;19936;-83
2023/03/18 10:28:11;;;;;;;;;;;;;;;12.22;75.60;98454.19;5064589;28;19924;-83
2023/03/18 10:30:55;;;;;;;;;;;;;;;12.28;75.32;98450.44;5055186;28;19934;-83
2023/03/18 10:33:23;;;;;;;;;;;;;;;12.32;75.23;98446.16;5057590;28;21756;-83
2023/03/18 10:36:17;;;;;;;;;;;;;;;12.46;75.18;98460.59;5065554;28;19924;-82
2023/03/18 10:38:44;;;;;;;;;;;;;;;12.47;74.40;98456.84;5065243;28;19924;-83
2023/03/18 10:41:33;;;;;;;;;;;;;;;12.56;75.32;98453.34;5072480;28;20070;-84
2023/03/18 10:44:01;;;;;;;;;;;;;;;12.79;75.05;98458.13;5056925;28;20295;-83
2023/03/18 10:46:26;;;;;;;;;;;;;;;12.78;73.96;98453.84;5064623;28;20228;-84
2023/03/18 10:48:55;;;;;;;;;;;;;;;12.96;74.09;98451.63;5055991;28;19924;-83
2023/03/18 10:51:20;;;;;;;;;;;;;;;12.85;73.33;98455.41;5072147;28;19926;-83
2023/03/18 10:54:06;;;;;;;;;;;;;;;12.71;73.29;98460.56;5068678;28;19992;-82
2023/03/18 10:56:34;;;;;;;;;;;;;;;12.71;73.94;98457.88;5084530;28;19917;-84
2023/03/18 10:59:00;;;;;;;;;;;;;;;12.74;73.40;98458.13;5071391;28;20391;-84
2023/03/18 11:01:27;;;;;;;;;;;;;;;12.74;73.36;98457.31;5073249;28;19975;-83
2023/03/18 11:03:57;;;;;;;;;;;;;;;12.69;73.11;98462.69;5071645;28;19925;-83
2023/03/18 11:06:35;;;;;;;;;;;;;;;12.75;73.24;98461.63;5069385;28;19955;-84
2023/03/18 11:09:11;;;;;;;;;;;;;;;12.85;72.95;98450.88;5074178;28;19921;-84
2023/03/18 11:11:41;;;;;;;;;;;;;;;12.86;72.62;98457.03;5056112;28;19920;-84
2023/03/18 11:14:11;;;;;;;;;;;;;;;13.09;72.60;98451.91;5070094;28;19916;-84
2023/03/18 11:16:41;;;;;;;;;;;;;;;13.29;72.24;98434.94;5080011;28;19924;-84
2023/03/18 11:19:28;;;;;;;;;;;;;;;13.40;71.74;98452.56;5086368;28;19924;-83
2023/03/18 11:22:10;;;;;;;;;;;;;;;13.46;71.37;98448.78;5059684;28;20012;-84
2023/03/18 11:24:43;;;;;;;;;;;;;;;13.22;71.79;98440.59;5071308;28;19917;-84
2023/03/18 11:27:14;;;;;;;;;;;;;;;13.48;70.76;98443.94;5081353;28;20687;-82
2023/03/18 11:29:41;;;;;;;;;;;;;;;13.63;70.74;98443.06;5067813;28;19939;-83
2023/03/18 11:32:21;;;;;;;;;;;;;;;13.84;70.80;98441.84;5071587;28;19938;-84
2023/03/18 11:34:52;;;;;;;;;;;;;;;13.98;70.06;98440.09;5066174;28;19924;-83
2023/03/18 11:37:18;;;;;;;;;;;;;;;13.84;70.31;98439.16;5071969;28;20400;-84
2023/03/18 11:39:43;;;;;;;;;;;;;;;13.80;69.87;98441.59;5064103;28;19975;-84
2023/03/18 11:42:20;;;;;;;;;;;;;;;13.93;69.23;98443.66;5052986;28;19920;-83
2023/03/18 11:44:46;;;;;;;;;;;;;;;13.85;69.03;98440.75;5067867;28;19946;-83
2023/03/18 11:47:16;;;;;;;;;;;;;;;13.86;68.00;98437.00;5072055;28;20011;-83
2023/03/18 11:49:42;;;;;;;;;;;;;;;14.03;67.65;98423.97;5079864;28;19920;-83
2023/03/18 11:52:26;;;;;;;;;;;;;;;14.27;67.79;98430.22;5065877;28;19920;-83
2023/03/18 11:55:06;;;;;;;;;;;;;;;14.19;68.53;98425.47;5064904;28;19972;-84
2023/03/18 11:57:51;;;;;;;;;;;;;;;14.50;66.31;98429.50;5071514;28;19992;-83
2023/03/18 12:00:16;;;;;;;;;;;;;;;14.45;66.99;98424.19;5070005;28;19921;-83
2023/03/18 12:02:53;;;;;;;;;;;;;;;14.43;66.50;98434.41;5061778;28;19923;-84
2023/03/18 12:05:35;;;;;;;;;;;;;;;14.53;66.74;98428.91;5065260;28;20377;-83
2023/03/18 12:08:03;;;;;;;;;;;;;;;14.43;66.46;98425.53;5067672;28;19922;-83
2023/03/18 12:10:35;;;;;;;;;;;;;;;14.51;66.24;98427.59;5066083;28;20517;-83
2023/03/18 12:13:13;;;;;;;;;;;;;;;14.59;65.11;98427.78;5062632;28;20525;-83
2023/03/18 12:15:47;;;;;;;;;;;;;;;14.80;65.36;98421.13;5068553;28;20300;-84
2023/03/18 12:18:22;;;;;;;;;;;;;;;15.01;64.10;98418.97;5067429;28;20673;-84
2023/03/18 12:20:49;;;;;;;;;;;;;;;15.02;64.84;98409.84;5070138;28;19970;-84
2023/03/18 12:23:34;;;;;;;;;;;;;;;14.91;65.58;98411.88;5069587;28;19920;-83
2023/03/18 12:26:07;;;;;;;;;;;;;;;15.05;65.82;98414.63;5063926;28;19921;-84
2023/03/18 12:28:51;;;;;;;;;;;;;;;15.21;64.32;98417.94;5073935;28;19928;-84
2023/03/18 12:31:16;;;;;;;;;;;;;;;15.26;63.98;98412.50;5073298;28;19963;-84
2023/03/18 12:34:01;;;;;;;;;;;;;;;14.96;63.54;98413.69;5087117;28;19924;-83
2023/03/18 12:36:47;;;;;;;;;;;;;;;14.98;63.99;98408.81;5070676;28;19928;-84
2023/03/18 12:39:32;;;;;;;;;;;;;;;15.00;64.11;98412.81;5069137;28;19927;-84
2023/03/18 12:42:08;;;;;;;;;;;;;;;15.18;64.11;98413.94;5065453;28;19921;-84
2023/03/18 12:44:36;;;;;;;;;;;;;;;15.16;64.58;98409.94;5063995;28;19963;-82
2023/03/18 12:47:05;;;;;;;;;;;;;;;15.35;63.42;98414.25;5072007;28;19962;-82
2023/03/18 12:49:31;;;;;;;;;;;;;;;15.43;63.29;98407.41;5074582;28;19916;-83
2023/03/18 12:52:08;;;;;;;;;;;;;;;15.50;63.83;98407.91;5072606;28;19923;-83
2023/03/18 12:54:46;;;;;;;;;;;;;;;15.54;63.51;98412.41;5069552;28;19920;-83
2023/03/18 12:57:14;;;;;;;;;;;;;;;15.49;62.62;98406.28;5075442;28;20420;-83